createdAt,value
2019-01-26T00:01:43.937Z,98318.52
2019-01-26T00:04:11.831Z,98316.16
2019-01-26T00:06:39.721Z,98309.03
2019-01-26T00:09:09.645Z,98306.80
2019-01-26T00:11:37.715Z,98310.66
2019-01-26T00:14:06.259Z,98313.12
2019-01-26T00:16:34.478Z,98312.31
2019-01-26T00:19:02.265Z,98288.33
2019-01-26T00:21:34.373Z,98298.52
2019-01-26T00:24:04.183Z,98290.47
2019-01-26T00:26:36.232Z,98227.96
2019-01-26T00:29:00.871Z,98275.34
2019-01-26T00:31:28.645Z,98276.05
2019-01-26T00:33:56.617Z,98271.52
2019-01-26T00:36:25.184Z,98254.91
2019-01-26T00:38:53.523Z,98243.53
2019-01-26T00:41:22.776Z,98240.75
2019-01-26T00:43:51.228Z,98233.88
2019-01-26T00:46:19.862Z,98229.34
2019-01-26T00:48:48.911Z,98218.78
2019-01-26T00:51:17.355Z,98220.42
2019-01-26T00:53:45.617Z,98226.63
2019-01-26T00:56:14.929Z,98222.48
2019-01-26T00:58:42.898Z,98209.34
2019-01-26T01:01:11.706Z,98199.34
2019-01-26T01:03:39.791Z,98197.53
2019-01-26T01:06:08.055Z,98196.75
2019-01-26T01:08:36.347Z,98207.02
2019-01-26T01:11:04.731Z,98202.13
2019-01-26T01:13:33.125Z,98201.84
2019-01-26T01:16:01.065Z,98205.70
2019-01-26T01:18:29.115Z,98206.25
2019-01-26T01:20:57.394Z,98208.75
2019-01-26T01:23:25.898Z,98207.23
2019-01-26T01:25:54.284Z,98201.81
2019-01-26T01:28:22.432Z,98189.50
2019-01-26T01:30:50.204Z,98190.23
2019-01-26T01:33:18.887Z,98194.68
2019-01-26T01:35:46.638Z,98187.02
2019-01-26T01:38:14.625Z,98186.58
2019-01-26T01:40:42.803Z,98179.69
2019-01-26T01:43:10.918Z,98170.45
2019-01-26T01:45:39.365Z,98179.80
2019-01-26T01:48:07.402Z,98173.53
2019-01-26T01:50:35.793Z,98172.52
2019-01-26T01:53:04.293Z,98115.34
2019-01-26T01:55:32.209Z,98153.20
2019-01-26T01:58:01.058Z,98164.70
2019-01-26T02:00:30.971Z,98167.23
2019-01-26T02:02:58.863Z,98149.20
2019-01-26T02:05:27.272Z,98149.83
2019-01-26T02:07:55.097Z,98153.11
2019-01-26T02:10:24.300Z,98137.12
2019-01-26T02:12:52.278Z,98139.97
2019-01-26T02:15:20.366Z,98137.77
2019-01-26T02:17:48.760Z,98132.48
2019-01-26T02:20:18.960Z,98134.83
2019-01-26T02:22:47.019Z,98130.13
2019-01-26T02:25:15.314Z,98124.66
2019-01-26T02:27:43.383Z,98118.95
2019-01-26T02:30:13.995Z,98128.53
2019-01-26T02:32:42.144Z,98129.84
2019-01-26T02:35:10.666Z,98127.50
2019-01-26T02:37:39.241Z,98125.54
2019-01-26T02:40:12.166Z,98113.03
2019-01-26T02:42:40.366Z,98107.80
2019-01-26T02:45:09.616Z,98118.30
2019-01-26T02:47:37.972Z,98127.06
2019-01-26T02:50:09.187Z,98079.72
2019-01-26T02:52:37.286Z,98117.14
2019-01-26T02:55:05.886Z,98116.66
2019-01-26T02:57:34.264Z,98106.69
2019-01-26T03:00:02.674Z,98121.92
2019-01-26T03:02:30.948Z,98109.76
2019-01-26T03:04:59.061Z,98115.62
2019-01-26T03:07:27.559Z,98108.34
2019-01-26T03:09:56.215Z,98105.84
2019-01-26T03:12:24.617Z,98100.67
2019-01-26T03:14:52.824Z,98105.55
2019-01-26T03:17:21.551Z,98110.44
2019-01-26T03:19:49.579Z,98108.67
2019-01-26T03:22:18.064Z,98107.25
2019-01-26T03:24:46.671Z,98107.98
2019-01-26T03:27:14.908Z,98097.78
2019-01-26T03:29:43.336Z,98095.22
2019-01-26T03:32:11.511Z,98059.56
2019-01-26T03:34:39.630Z,98096.36
2019-01-26T03:37:07.754Z,98081.87
2019-01-26T03:39:35.975Z,98097.08
2019-01-26T03:42:04.670Z,98102.32
2019-01-26T03:44:32.796Z,98100.75
2019-01-26T03:47:01.109Z,98092.48
2019-01-26T03:49:29.304Z,97846.52
2019-01-26T03:51:59.519Z,98082.89
2019-01-26T03:54:27.867Z,98075.45
2019-01-26T03:56:56.500Z,98076.39
2019-01-26T03:59:25.063Z,98067.78
2019-01-26T04:01:53.219Z,98074.24
2019-01-26T04:04:21.420Z,98070.52
2019-01-26T04:06:49.894Z,98069.69
2019-01-26T04:09:18.964Z,98071.60
2019-01-26T04:11:47.166Z,98057.33
2019-01-26T04:14:16.358Z,98073.48
2019-01-26T04:16:44.822Z,98070.75
2019-01-26T04:19:13.682Z,98075.99
2019-01-26T04:21:42.277Z,98075.78
2019-01-26T04:24:10.705Z,98034.72
2019-01-26T04:26:39.212Z,98064.98
2019-01-26T04:29:07.652Z,98069.42
2019-01-26T04:31:35.452Z,98073.30
2019-01-26T04:34:03.864Z,98074.91
2019-01-26T04:36:31.691Z,98073.19
2019-01-26T04:38:59.865Z,98071.43
2019-01-26T04:41:28.073Z,98073.96
2019-01-26T04:43:56.052Z,98083.11
2019-01-26T04:46:25.884Z,98079.59
2019-01-26T04:48:54.185Z,98064.53
2019-01-26T04:51:22.677Z,98066.23
2019-01-26T04:53:51.092Z,98069.36
2019-01-26T04:56:19.326Z,98067.55
2019-01-26T04:58:47.993Z,97925.44
2019-01-26T05:01:16.533Z,98055.22
2019-01-26T05:03:44.509Z,98057.63
2019-01-26T05:08:45.144Z,98036.71
2019-01-26T05:11:35.442Z,98055.05
2019-01-26T05:14:03.581Z,98054.07
2019-01-26T05:16:33.352Z,98054.55
2019-01-26T05:19:01.383Z,98062.12
2019-01-26T05:21:29.823Z,98059.15
2019-01-26T05:23:58.034Z,98053.08
2019-01-26T05:26:26.696Z,98056.35
2019-01-26T05:28:54.560Z,98059.48
2019-01-26T05:31:23.196Z,98056.59
2019-01-26T05:33:51.684Z,98060.08
2019-01-26T05:36:20.490Z,98065.45
2019-01-26T05:38:52.510Z,98069.34
2019-01-26T05:41:20.694Z,98058.00
2019-01-26T05:43:48.627Z,98062.50
2019-01-26T05:46:16.769Z,98058.48
2019-01-26T05:48:44.633Z,98058.27
2019-01-26T05:51:13.192Z,98061.55
2019-01-26T05:53:41.084Z,98058.81
2019-01-26T05:56:09.553Z,98049.77
2019-01-26T05:58:41.298Z,98053.66
2019-01-26T06:01:09.411Z,98047.26
2019-01-26T06:03:38.293Z,98046.48
2019-01-26T06:06:07.109Z,98052.23
2019-01-26T06:08:35.332Z,98062.75
2019-01-26T06:11:03.766Z,98068.53
2019-01-26T06:13:32.104Z,98067.73
2019-01-26T06:16:00.049Z,97848.69
2019-01-26T06:18:28.331Z,98065.53
2019-01-26T06:20:56.367Z,98062.20
2019-01-26T06:23:24.828Z,98060.38
2019-01-26T06:25:53.233Z,98051.77
2019-01-26T06:28:21.276Z,98045.30
2019-01-26T06:30:50.333Z,98048.97
2019-01-26T06:33:18.561Z,98052.64
2019-01-26T06:35:47.451Z,97874.09
2019-01-26T06:38:15.984Z,98094.52
2019-01-26T06:40:45.951Z,98045.55
2019-01-26T06:43:16.212Z,98031.45
2019-01-26T06:45:44.436Z,98053.12
2019-01-26T06:48:13.733Z,98047.38
2019-01-26T06:50:42.159Z,98044.30
2019-01-26T06:53:10.351Z,98049.87
2019-01-26T06:55:39.070Z,98049.66
2019-01-26T06:58:08.993Z,98050.20
2019-01-26T07:00:39.016Z,98048.00
2019-01-26T07:03:08.766Z,98048.92
2019-01-26T07:05:42.450Z,97999.67
2019-01-26T07:08:15.745Z,98034.02
2019-01-26T07:10:45.440Z,97960.94
2019-01-26T07:13:14.399Z,98029.47
2019-01-26T07:15:46.106Z,98023.36
2019-01-26T07:18:14.578Z,98051.30
2019-01-26T07:20:43.208Z,98012.13
2019-01-26T07:23:14.341Z,98071.22
2019-01-26T07:25:45.583Z,97922.44
2019-01-26T07:28:14.729Z,97776.75
2019-01-26T07:30:45.101Z,98005.42
2019-01-26T07:33:13.719Z,98009.20
2019-01-26T07:35:42.032Z,98004.05
2019-01-26T07:38:13.674Z,98012.36
2019-01-26T07:40:43.672Z,98015.48
2019-01-26T07:43:12.712Z,97977.09
2019-01-26T07:45:41.065Z,98009.25
2019-01-26T07:48:16.792Z,98053.91
2019-01-26T07:50:39.086Z,97994.95
2019-01-26T07:53:12.763Z,97992.74
2019-01-26T07:55:43.664Z,97991.76
2019-01-26T07:58:12.904Z,97989.94
2019-01-26T08:00:41.445Z,97987.91
2019-01-26T08:03:11.335Z,97987.84
2019-01-26T08:05:42.722Z,97981.67
2019-01-26T08:08:14.376Z,97971.02
2019-01-26T08:10:43.687Z,97970.37
2019-01-26T08:13:11.730Z,97969.14
2019-01-26T08:15:43.700Z,97968.41
2019-01-26T08:18:14.704Z,97806.91
2019-01-26T08:20:43.050Z,97981.25
2019-01-26T08:23:11.843Z,97952.38
2019-01-26T08:25:39.866Z,97941.20
2019-01-26T08:28:08.772Z,97950.28
2019-01-26T08:30:36.580Z,97945.50
2019-01-26T08:33:05.546Z,97888.66
2019-01-26T08:35:35.152Z,97930.30
2019-01-26T08:38:05.927Z,97908.55
2019-01-26T08:40:34.692Z,97937.11
2019-01-26T08:43:03.446Z,97937.16
2019-01-26T08:45:33.126Z,97932.81
2019-01-26T08:48:10.529Z,97929.71
2019-01-26T08:50:43.586Z,97924.47
2019-01-26T08:53:16.669Z,97776.94
2019-01-26T08:55:46.123Z,97920.44
2019-01-26T08:58:15.137Z,97930.16
2019-01-26T09:00:46.027Z,97926.08
2019-01-26T09:03:36.540Z,97874.67
2019-01-26T09:06:11.212Z,97929.15
2019-01-26T09:08:41.246Z,97815.09
2019-01-26T09:11:22.086Z,97929.46
2019-01-26T09:13:53.794Z,97657.15
2019-01-26T09:16:24.318Z,97921.92
2019-01-26T09:18:52.682Z,97918.56
2019-01-26T09:21:23.404Z,97912.25
2019-01-26T09:23:55.135Z,97911.32
2019-01-26T09:26:27.207Z,97883.13
2019-01-26T09:28:57.469Z,97905.98
2019-01-26T09:31:30.551Z,97911.19
2019-01-26T09:33:59.589Z,97912.23
2019-01-26T09:36:33.795Z,97917.52
2019-01-26T09:39:02.322Z,97914.92
2019-01-26T09:41:33.769Z,97910.63
2019-01-26T09:44:02.681Z,97917.67
2019-01-26T09:46:31.524Z,97921.17
2019-01-26T09:49:03.049Z,97924.77
2019-01-26T09:51:51.662Z,97918.88
2019-01-26T09:54:21.488Z,97926.80
2019-01-26T09:56:55.826Z,97928.63
2019-01-26T09:59:29.120Z,97934.83
2019-01-26T10:01:57.700Z,97928.70
2019-01-26T10:04:27.128Z,97941.92
2019-01-26T10:07:00.637Z,97941.23
2019-01-26T10:09:29.251Z,97954.67
2019-01-26T10:11:57.738Z,97956.05
2019-01-26T10:14:29.196Z,97948.48
2019-01-26T10:16:57.637Z,97946.19
2019-01-26T10:19:25.689Z,97945.89
2019-01-26T10:21:53.951Z,97955.27
2019-01-26T10:24:25.422Z,97949.22
2019-01-26T10:26:54.680Z,97932.71
2019-01-26T10:29:23.271Z,97938.83
2019-01-26T10:31:52.025Z,97924.36
2019-01-26T10:34:20.230Z,97851.73
2019-01-26T10:36:58.273Z,97930.92
2019-01-26T10:39:32.808Z,97933.98
2019-01-26T10:42:07.062Z,97928.86
2019-01-26T10:44:36.194Z,97925.94
2019-01-26T10:47:05.752Z,97918.13
2019-01-26T10:49:34.886Z,97925.98
2019-01-26T10:52:03.899Z,97926.34
2019-01-26T10:54:33.030Z,97917.00
2019-01-26T10:57:02.149Z,97918.08
2019-01-26T10:59:31.201Z,97921.50
2019-01-26T11:01:59.323Z,97870.22
2019-01-26T11:04:31.235Z,97917.28
2019-01-26T11:06:59.431Z,97919.77
2019-01-26T11:09:27.629Z,97914.03
2019-01-26T11:11:58.226Z,97909.05
2019-01-26T11:14:26.130Z,97917.01
2019-01-26T11:16:57.109Z,97915.08
2019-01-26T11:19:28.486Z,97904.97
2019-01-26T11:22:03.444Z,97905.87
2019-01-26T11:24:33.339Z,97899.34
2019-01-26T11:27:02.368Z,97900.03
2019-01-26T11:29:32.071Z,97894.05
2019-01-26T11:32:00.404Z,97898.83
2019-01-26T11:34:29.274Z,97882.59
2019-01-26T11:36:58.599Z,97896.86
2019-01-26T11:39:28.590Z,97885.88
2019-01-26T11:41:58.925Z,97889.46
2019-01-26T11:44:27.847Z,97885.79
2019-01-26T11:47:00.274Z,97892.05
2019-01-26T11:49:29.475Z,97892.25
2019-01-26T11:52:06.307Z,97891.73
2019-01-26T11:54:36.172Z,97888.13
2019-01-26T11:57:25.223Z,97890.79
2019-01-26T12:00:00.500Z,97846.91
2019-01-26T12:02:34.790Z,97883.64
2019-01-26T12:05:09.090Z,97887.00
2019-01-26T12:07:37.950Z,97884.93
2019-01-26T12:10:09.879Z,97877.73
2019-01-26T12:12:39.349Z,97871.70
2019-01-26T12:15:10.617Z,97859.35
2019-01-26T12:17:44.730Z,97840.19
2019-01-26T12:20:14.718Z,97877.35
2019-01-26T12:22:44.999Z,97877.95
2019-01-26T12:25:13.372Z,97870.84
2019-01-26T12:27:41.644Z,97868.86
2019-01-26T12:30:11.471Z,97859.13
2019-01-26T12:32:41.800Z,97871.75
2019-01-26T12:35:11.860Z,97819.75
2019-01-26T12:37:41.640Z,97869.50
2019-01-26T12:40:11.327Z,97860.77
2019-01-26T12:42:40.288Z,97886.09
2019-01-26T12:45:11.953Z,97882.77
2019-01-26T12:47:40.170Z,97878.77
2019-01-26T12:50:09.255Z,97883.38
2019-01-26T12:52:39.659Z,97882.30
2019-01-26T12:55:11.712Z,97887.52
2019-01-26T12:57:40.805Z,97875.88
2019-01-26T13:00:12.890Z,97883.81
2019-01-26T13:02:40.877Z,97874.06
2019-01-26T13:05:09.387Z,97874.14
2019-01-26T13:07:38.407Z,97836.99
2019-01-26T13:10:11.970Z,97868.38
2019-01-26T13:12:40.182Z,97862.16
2019-01-26T13:15:15.214Z,97863.77
2019-01-26T13:17:37.683Z,97861.91
2019-01-26T13:20:06.662Z,97853.88
2019-01-26T13:22:35.328Z,97862.84
2019-01-26T13:25:05.384Z,97858.36
2019-01-26T13:27:35.700Z,97872.67
2019-01-26T13:30:06.738Z,97868.78
2019-01-26T13:32:34.927Z,97869.82
2019-01-26T13:35:03.485Z,97867.97
2019-01-26T13:37:31.822Z,97870.89
2019-01-26T13:40:02.915Z,97880.92
2019-01-26T13:42:31.173Z,97872.74
2019-01-26T13:44:59.229Z,97874.95
2019-01-26T13:47:28.077Z,97875.97
2019-01-26T13:49:56.570Z,97870.81
2019-01-26T13:52:24.410Z,97878.39
2019-01-26T13:54:52.159Z,97874.16
2019-01-26T13:57:20.396Z,97870.41
2019-01-26T13:59:48.841Z,97876.53
2019-01-26T14:02:17.675Z,97882.32
2019-01-26T14:04:46.006Z,97875.97
2019-01-26T14:07:14.001Z,97859.16
2019-01-26T14:09:42.640Z,97877.02
2019-01-26T14:12:10.522Z,97889.42
2019-01-26T14:14:38.460Z,97883.61
2019-01-26T14:17:08.791Z,97882.30
2019-01-26T14:19:37.496Z,97889.81
2019-01-26T14:22:06.026Z,97907.13
2019-01-26T14:24:34.317Z,97883.34
2019-01-26T14:27:02.781Z,97876.83
2019-01-26T14:29:31.792Z,97875.06
2019-01-26T14:31:59.985Z,97878.81
2019-01-26T14:34:27.907Z,97880.70
2019-01-26T14:36:55.689Z,97863.40
2019-01-26T14:39:24.222Z,97876.56
2019-01-26T14:41:53.338Z,97873.33
2019-01-26T14:44:21.217Z,97852.09
2019-01-26T14:46:49.029Z,97874.95
2019-01-26T14:49:17.100Z,97916.92
2019-01-26T14:51:45.049Z,97839.16
2019-01-26T14:54:13.537Z,97863.78
2019-01-26T14:56:41.575Z,97868.57
2019-01-26T14:59:09.819Z,97867.58
2019-01-26T15:01:37.922Z,97853.34
2019-01-26T15:04:05.969Z,97834.91
2019-01-26T15:06:34.256Z,97866.63
2019-01-26T15:09:03.935Z,97831.13
2019-01-26T15:11:32.252Z,97862.13
2019-01-26T15:14:00.686Z,97862.64
2019-01-26T15:16:28.593Z,97797.08
2019-01-26T15:18:56.356Z,97856.22
2019-01-26T15:21:24.511Z,97863.83
2019-01-26T15:23:53.058Z,97851.50
2019-01-26T15:26:21.396Z,97847.45
2019-01-26T15:28:50.271Z,97852.93
2019-01-26T15:31:19.845Z,97851.44
2019-01-26T15:33:48.637Z,97847.59
2019-01-26T15:36:18.273Z,97844.32
2019-01-26T15:38:47.565Z,97822.23
2019-01-26T15:41:15.700Z,97850.41
2019-01-26T15:43:43.924Z,97850.25
2019-01-26T15:46:13.771Z,97855.95
2019-01-26T15:48:44.414Z,97851.16
2019-01-26T15:51:13.840Z,97777.73
2019-01-26T15:53:42.224Z,97843.64
2019-01-26T15:56:11.493Z,97838.51
2019-01-26T15:58:42.868Z,97835.20
2019-01-26T16:01:10.847Z,97838.34
2019-01-26T16:03:39.209Z,97835.27
2019-01-26T16:06:07.378Z,97831.52
2019-01-26T16:08:35.400Z,97835.66
2019-01-26T16:11:03.955Z,97841.27
2019-01-26T16:13:31.960Z,97841.48
2019-01-26T16:16:00.127Z,97836.97
2019-01-26T16:18:28.981Z,97808.56
2019-01-26T16:20:56.726Z,97839.89
2019-01-26T16:23:28.222Z,97844.16
2019-01-26T16:25:56.188Z,97845.70
2019-01-26T16:28:28.814Z,97836.40
2019-01-26T16:30:57.322Z,97832.52
2019-01-26T16:33:26.321Z,97840.27
2019-01-26T16:35:55.649Z,97837.73
2019-01-26T16:38:24.503Z,97829.46
2019-01-26T16:40:54.487Z,97827.09
2019-01-26T16:43:23.101Z,97823.95
2019-01-26T16:45:52.021Z,97815.58
2019-01-26T16:48:20.212Z,97812.69
2019-01-26T16:50:49.785Z,97814.29
2019-01-26T16:53:17.752Z,97812.91
2019-01-26T16:55:45.991Z,97817.05
2019-01-26T16:58:14.645Z,97820.19
2019-01-26T17:00:48.262Z,97810.02
2019-01-26T17:03:16.992Z,97796.48
2019-01-26T17:05:45.948Z,97747.84
2019-01-26T17:08:14.356Z,97812.30
2019-01-26T17:10:42.625Z,97813.72
2019-01-26T17:13:10.987Z,97783.52
2019-01-26T17:15:39.318Z,97816.86
2019-01-26T17:18:13.694Z,97818.11
2019-01-26T17:20:37.723Z,97756.58
2019-01-26T17:23:05.623Z,97817.45
2019-01-26T17:25:33.906Z,97812.92
2019-01-26T17:28:05.108Z,97805.96
2019-01-26T17:30:39.763Z,97774.61
2019-01-26T17:33:08.782Z,97802.08
2019-01-26T17:35:40.934Z,97799.80
2019-01-26T17:38:09.661Z,97794.66
2019-01-26T17:40:37.919Z,97792.36
2019-01-26T17:43:07.455Z,97796.49
2019-01-26T17:45:35.556Z,97754.84
2019-01-26T17:48:04.560Z,97789.81
2019-01-26T17:50:33.713Z,97790.16
2019-01-26T17:53:01.990Z,97793.14
2019-01-26T17:55:30.026Z,97776.85
2019-01-26T17:57:58.421Z,97786.75
2019-01-26T18:00:38.358Z,97789.98
2019-01-26T18:03:09.104Z,97781.66
2019-01-26T18:05:37.760Z,97781.28
2019-01-26T18:08:06.192Z,97771.38
2019-01-26T18:10:36.058Z,97820.41
2019-01-26T18:13:06.237Z,97765.86
2019-01-26T18:15:34.301Z,97754.22
2019-01-26T18:18:03.126Z,97764.00
2019-01-26T18:20:31.026Z,97765.25
2019-01-26T18:22:59.860Z,97755.13
2019-01-26T18:25:31.137Z,97743.05
2019-01-26T18:28:00.209Z,97752.87
2019-01-26T18:30:30.948Z,97752.75
2019-01-26T18:32:59.405Z,97753.84
2019-01-26T18:35:30.635Z,97741.77
2019-01-26T18:38:02.120Z,97745.44
2019-01-26T18:40:32.942Z,97744.19
2019-01-26T18:43:01.693Z,97713.72
2019-01-26T18:45:31.499Z,97745.25
2019-01-26T18:48:04.868Z,97737.97
2019-01-26T18:50:37.017Z,97738.73
2019-01-26T18:53:05.690Z,97747.53
2019-01-26T18:55:34.932Z,97748.05
2019-01-26T18:58:04.360Z,97739.00
2019-01-26T19:00:37.103Z,97736.53
2019-01-26T19:05:14.576Z,97742.20
2019-01-26T19:07:42.938Z,97728.03
2019-01-26T19:10:12.913Z,97767.03
2019-01-26T19:12:40.827Z,97716.45
2019-01-26T19:15:16.742Z,97689.43
2019-01-26T19:17:44.917Z,97719.66
2019-01-26T19:20:14.498Z,97712.00
2019-01-26T19:22:43.767Z,97709.20
2019-01-26T19:25:14.772Z,97708.01
2019-01-26T19:27:45.215Z,97711.86
2019-01-26T19:30:15.753Z,97691.67
2019-01-26T19:32:44.122Z,97679.20
2019-01-26T19:35:14.997Z,97695.42
2019-01-26T19:37:45.398Z,97692.69
2019-01-26T19:40:16.962Z,97688.48
2019-01-26T19:42:55.245Z,97664.42
2019-01-26T19:45:24.611Z,97674.84
2019-01-26T19:47:55.220Z,97662.38
2019-01-26T19:50:26.522Z,97663.05
2019-01-26T19:52:56.136Z,97592.07
2019-01-26T19:55:25.431Z,97613.95
2019-01-26T19:57:53.859Z,97662.81
2019-01-26T20:00:25.095Z,97659.48
2019-01-26T20:02:55.102Z,97654.02
2019-01-26T20:05:25.459Z,97649.69
2019-01-26T20:07:54.529Z,97656.14
2019-01-26T20:10:24.289Z,97646.52
2019-01-26T20:12:55.668Z,97655.27
2019-01-26T20:15:25.450Z,97646.26
2019-01-26T20:17:54.210Z,97648.94
2019-01-26T20:20:26.552Z,97641.31
2019-01-26T20:22:55.295Z,97636.28
2019-01-26T20:25:30.427Z,97649.76
2019-01-26T20:28:01.806Z,97627.91
2019-01-26T20:30:33.895Z,97632.81
2019-01-26T20:33:05.645Z,97629.51
2019-01-26T20:35:34.639Z,97616.47
2019-01-26T20:38:04.197Z,97616.59
2019-01-26T20:40:32.060Z,97621.11
2019-01-26T20:43:02.439Z,97618.84
2019-01-26T20:45:31.499Z,97611.66
2019-01-26T20:48:04.336Z,97595.41
2019-01-26T20:50:34.204Z,97599.31
2019-01-26T20:53:04.044Z,97600.40
2019-01-26T20:55:32.424Z,97598.73
2019-01-26T20:58:01.818Z,97588.96
2019-01-26T21:00:30.539Z,97587.38
2019-01-26T21:02:58.372Z,97578.92
2019-01-26T21:05:26.745Z,97578.84
2019-01-26T21:07:57.483Z,97574.80
2019-01-26T21:10:31.260Z,97569.60
2019-01-26T21:13:00.346Z,97569.42
2019-01-26T21:15:28.644Z,97576.22
2019-01-26T21:17:57.429Z,97563.92
2019-01-26T21:20:27.952Z,97545.26
2019-01-26T21:22:57.082Z,97551.11
2019-01-26T21:25:25.010Z,97507.22
2019-01-26T21:27:53.365Z,97536.84
2019-01-26T21:30:28.673Z,97547.47
2019-01-26T21:32:58.649Z,97533.16
2019-01-26T21:35:29.571Z,97534.23
2019-01-26T21:37:58.436Z,97516.98
2019-01-26T21:40:39.265Z,97533.61
2019-01-26T21:43:12.563Z,97515.59
2019-01-26T21:45:44.158Z,97517.44
2019-01-26T21:48:13.363Z,97517.28
2019-01-26T21:50:43.408Z,97512.77
2019-01-26T21:53:13.032Z,97511.68
2019-01-26T21:55:42.762Z,97483.72
2019-01-26T21:58:24.540Z,97499.38
2019-01-26T22:00:52.974Z,97499.03
2019-01-26T22:03:22.169Z,97492.28
2019-01-26T22:05:51.151Z,97492.95
2019-01-26T22:08:20.253Z,97493.25
2019-01-26T22:10:50.012Z,97474.41
2019-01-26T22:13:18.643Z,97484.39
2019-01-26T22:15:46.537Z,97461.42
2019-01-26T22:18:16.015Z,97500.81
2019-01-26T22:20:45.656Z,97482.06
2019-01-26T22:23:13.905Z,97481.42
2019-01-26T22:25:43.419Z,97480.59
2019-01-26T22:28:11.983Z,97474.19
2019-01-26T22:30:40.638Z,97400.48
2019-01-26T22:33:08.816Z,97471.99
2019-01-26T22:35:40.225Z,97321.52
2019-01-26T22:38:09.527Z,97463.42
2019-01-26T22:40:39.581Z,97462.69
2019-01-26T22:43:07.833Z,97454.88
2019-01-26T22:45:37.726Z,97450.88
2019-01-26T22:48:06.824Z,97447.27
2019-01-26T22:50:37.352Z,97448.55
2019-01-26T22:53:06.134Z,97446.47
2019-01-26T22:55:38.871Z,97446.89
2019-01-26T22:58:07.837Z,97450.06
2019-01-26T23:00:54.967Z,97440.33
2019-01-26T23:03:33.193Z,97431.98
2019-01-26T23:08:13.867Z,97425.23
2019-01-26T23:11:03.452Z,97399.09
2019-01-26T23:14:45.542Z,97378.61
2019-01-26T23:17:30.497Z,97405.22
2019-01-26T23:20:12.490Z,97396.00
2019-01-26T23:24:55.501Z,97390.39
2019-01-26T23:27:36.668Z,97393.82
2019-01-26T23:30:20.309Z,97365.17
2019-01-26T23:32:52.118Z,97382.42
2019-01-26T23:35:20.509Z,97375.77
2019-01-26T23:37:49.404Z,97372.78
2019-01-26T23:40:17.998Z,97367.05
2019-01-26T23:42:46.660Z,97360.53
2019-01-26T23:45:15.836Z,97359.41
2019-01-26T23:47:43.765Z,97344.59
2019-01-26T23:50:11.845Z,97347.02
2019-01-26T23:52:40.427Z,97339.14
2019-01-26T23:55:08.601Z,97334.34
2019-01-26T23:57:36.596Z,97333.48
